Davis, OK (73039)

4:37 PM CDT on September 02, 2014 (GMT -0500)
Ratliff City PD | Change Station
CLOSE
Current Station
Personal Weather Station
Location: Ratliff City, OK
Elevation: 1089 ft
Nearby Weather Stations

Elev 1089 ft 34.45 °N, 97.51 °W | Updated 14 minutes ago

Clear
Clear
93.8 °F
Feels Like 104 °F
N
1.0
Wind Variable Wind from SE
Gusts 14.0 mph

Today
High -- | Low -- °F
--% Chance of Precip.
Yesterday
High -- | Low -- °F
Precip. -- in
7:03 AM 7:54 PM
First Quarter, 55% visible
Pressure 29.91 in
Visibility 10.0 miles
Clouds Clear
Heat Index 104 °F
Dew Point 74 °F
Humidity 52%
Rainfall 0.00 in
Snow Depth Not available.
UV 6 out of 12
Pollen 10.50 out of 12
Air Quality Not available.
Flu Activity Not available.
METAR KPVJ 022115Z AUTO 13012G16KT 10SM CLR 31/21 A2991 RMK AO2 T03130210

More Conditions Fewer Conditions

Pressure 29.91 in
Visibility 10.0 miles
Clouds Clear
Heat Index 104 °F
Dew Point 74 °F
Humidity 52%
Rainfall 0.00 in
Snow Depth Not available.
UV 6 out of 12
Pollen 10.50 out of 12
Air Quality Not available.
Flu Activity Not available.
METAR KPVJ 022115Z AUTO 13012G16KT 10SM CLR 31/21 A2991 RMK AO2 T03130210

More Conditions Fewer Conditions

10-Day Weather Forecast

Almanac

Astronomy

Sep. 02, 2014 Rise Set
Actual Time 7:03 AM CDT 7:54 PM CDT
Civil Twilight 6:38 AM CDT 8:20 PM CDT
Nautical Twilight 6:07 AM CDT 8:50 PM CDT
Astronomical Twilight 5:36 AM CDT 9:22 PM CDT
Moon 2:31 PM CDT 12:15 AM CDT
Length of Visible Light 13h 42m
Length of Day
12h 51m
Tomorrow will be 2m 5s shorter.
First Quarter, 55% of the Moon is Illuminated
Today
First Quarter
Sep 8
Full
Sep 15
Last Quarter
Sep 24
New
Oct 1
First Quarter

Today's Extremes

State Highs State Lows

Community

WunderPhotos

Upload Photos

1,749,776 photos uploaded!

Nearby

Snow Depth

Station Depth Elevation
No new snow has been reported.

Earthquake Activity

City Distance Mag. Time & Date
Helena, Oklahoma 136 miles 3.2 3:05 AM CDT
2014-09-02
Perry, Oklahoma 107 miles 3.1 6:46 AM CDT
2014-09-01
Jones, Oklahoma 67 miles 3.1 1:49 PM CDT
2014-08-31
Enid, Oklahoma 138 miles 3.4 11:57 AM CDT
2014-08-31
Minimum magnitude displayed is 2.5.

Coastal Water Temperatures

Place Temperature
No Stations Reporting

Nearby Weather Stations